createdAt,value
2018-10-03T00:00:21.412Z,946.44
2018-10-03T00:01:21.313Z,946.44
2018-10-03T00:02:21.231Z,946.46
2018-10-03T00:03:21.433Z,946.42
2018-10-03T00:04:21.022Z,946.47
2018-10-03T00:05:20.924Z,946.49
2018-10-03T00:06:20.830Z,946.49
2018-10-03T00:07:20.743Z,946.47
2018-10-03T00:08:20.628Z,946.47
2018-10-03T00:09:20.643Z,946.52
2018-10-03T00:10:20.435Z,946.53
2018-10-03T00:11:20.334Z,946.54
2018-10-03T00:12:20.255Z,946.52
2018-10-03T00:13:20.140Z,946.52
2018-10-03T00:14:20.045Z,946.47
2018-10-03T00:15:19.947Z,946.47
2018-10-03T00:16:19.950Z,946.48
2018-10-03T00:17:19.765Z,946.41
2018-10-03T00:18:19.654Z,946.46
2018-10-03T00:19:19.560Z,946.48
2018-10-03T00:20:19.459Z,946.44
2018-10-03T00:21:19.359Z,946.38
2018-10-03T00:22:19.270Z,946.44
2018-10-03T00:23:19.188Z,946.45
2018-10-03T00:24:19.067Z,946.48
2018-10-03T00:25:18.967Z,946.46
2018-10-03T00:26:18.876Z,946.49
2018-10-03T00:27:18.778Z,946.47
2018-10-03T00:28:18.696Z,946.47
2018-10-03T00:29:18.582Z,946.55
2018-10-03T00:30:18.605Z,946.44
2018-10-03T00:31:18.387Z,946.48
2018-10-03T00:32:18.292Z,946.44
2018-10-03T00:33:18.209Z,946.43
2018-10-03T00:34:18.095Z,946.44
2018-10-03T00:35:17.999Z,946.47
2018-10-03T00:36:17.904Z,946.46
2018-10-03T00:37:17.803Z,946.47
2018-10-03T00:38:17.722Z,946.47
2018-10-03T00:39:17.610Z,946.42
2018-10-03T00:40:17.511Z,946.44
2018-10-03T00:41:17.412Z,946.43
2018-10-03T00:42:17.322Z,946.41
2018-10-03T00:43:17.236Z,946.40
2018-10-03T00:44:17.120Z,946.43
2018-10-03T00:45:17.026Z,946.46
2018-10-03T00:46:16.929Z,946.43
2018-10-03T00:47:16.830Z,946.46
2018-10-03T00:48:16.756Z,946.30
2018-10-03T00:49:16.636Z,946.39
2018-10-03T00:50:16.543Z,946.38
2018-10-03T00:51:16.444Z,946.39
2018-10-03T00:52:16.345Z,946.41
2018-10-03T00:53:16.267Z,946.42
2018-10-03T00:54:16.151Z,946.41
2018-10-03T00:55:16.053Z,946.38
2018-10-03T00:56:15.957Z,946.53
2018-10-03T00:57:15.857Z,946.50
2018-10-03T00:58:15.785Z,946.46
2018-10-03T00:59:15.663Z,946.48
2018-10-03T01:00:15.568Z,946.49
2018-10-03T01:01:15.471Z,946.49
2018-10-03T01:02:15.374Z,946.45
2018-10-03T01:03:15.295Z,946.54
2018-10-03T01:04:15.178Z,946.42
2018-10-03T01:05:15.080Z,946.44
2018-10-03T01:06:14.984Z,946.41
2018-10-03T01:07:14.890Z,946.42
2018-10-03T01:08:14.804Z,946.42
2018-10-03T01:09:14.696Z,946.48
2018-10-03T01:10:14.597Z,946.45
2018-10-03T01:11:14.499Z,946.51
2018-10-03T01:12:14.400Z,946.50
2018-10-03T01:13:14.322Z,946.50
2018-10-03T01:14:14.209Z,946.51
2018-10-03T01:15:14.111Z,946.49
2018-10-03T01:16:14.014Z,946.49
2018-10-03T01:17:13.917Z,946.46
2018-10-03T01:18:13.839Z,946.53
2018-10-03T01:19:13.727Z,946.47
2018-10-03T01:20:13.623Z,946.49
2018-10-03T01:21:13.527Z,946.48
2018-10-03T01:22:13.437Z,946.54
2018-10-03T01:23:13.349Z,946.46
2018-10-03T01:24:13.237Z,946.38
2018-10-03T01:25:13.141Z,946.42
2018-10-03T01:26:13.044Z,946.42
2018-10-03T01:27:12.948Z,946.42
2018-10-03T01:28:12.867Z,946.38
2018-10-03T01:29:12.753Z,946.41
2018-10-03T01:30:12.658Z,946.44
2018-10-03T01:31:12.556Z,946.41
2018-10-03T01:32:12.463Z,946.47
2018-10-03T01:33:12.380Z,946.43
2018-10-03T01:34:12.269Z,946.42
2018-10-03T01:35:12.169Z,946.38
2018-10-03T01:36:12.078Z,946.42
2018-10-03T01:37:11.976Z,946.38
2018-10-03T01:38:11.922Z,946.39
2018-10-03T01:39:11.788Z,946.39
2018-10-03T01:40:11.688Z,946.46
2018-10-03T01:41:11.591Z,946.49
2018-10-03T01:42:11.495Z,946.43
2018-10-03T01:43:11.408Z,946.44
2018-10-03T01:44:11.298Z,946.49
2018-10-03T01:45:11.204Z,946.45
2018-10-03T01:46:11.104Z,946.52
2018-10-03T01:47:11.005Z,946.45
2018-10-03T01:48:10.929Z,946.51
2018-10-03T01:49:10.815Z,946.53
2018-10-03T01:50:10.716Z,946.48
2018-10-03T01:51:10.617Z,946.47
2018-10-03T01:52:10.521Z,946.51
2018-10-03T01:53:10.544Z,946.50
2018-10-03T01:54:10.329Z,946.44
2018-10-03T01:55:10.230Z,946.49
2018-10-03T01:56:10.138Z,946.47
2018-10-03T01:57:10.035Z,946.45
2018-10-03T01:58:09.960Z,946.45
2018-10-03T01:59:09.851Z,946.55
2018-10-03T02:00:09.844Z,946.45
2018-10-03T02:01:09.649Z,946.50
2018-10-03T02:02:09.554Z,946.55
2018-10-03T02:03:09.474Z,946.41
2018-10-03T02:04:09.362Z,946.50
2018-10-03T02:05:09.263Z,946.56
2018-10-03T02:06:09.163Z,946.53
2018-10-03T02:07:09.165Z,946.54
2018-10-03T02:08:08.972Z,946.54
2018-10-03T02:09:08.894Z,946.53
2018-10-03T02:10:08.780Z,946.53
2018-10-03T02:11:08.679Z,946.53
2018-10-03T02:12:08.585Z,946.49
2018-10-03T02:13:08.487Z,946.52
2018-10-03T02:14:08.511Z,946.50
2018-10-03T02:15:08.294Z,946.51
2018-10-03T02:16:08.198Z,946.48
2018-10-03T02:17:08.101Z,946.54
2018-10-03T02:18:08.006Z,946.52
2018-10-03T02:19:07.923Z,946.49
2018-10-03T02:20:07.810Z,946.50
2018-10-03T02:21:07.820Z,946.55
2018-10-03T02:22:07.615Z,946.50
2018-10-03T02:23:07.521Z,946.47
2018-10-03T02:24:07.444Z,946.48
2018-10-03T02:25:07.384Z,946.46
2018-10-03T02:26:07.226Z,946.54
2018-10-03T02:27:07.175Z,946.62
2018-10-03T02:28:07.141Z,946.66
2018-10-03T02:29:06.953Z,946.64
2018-10-03T02:30:06.909Z,946.58
2018-10-03T02:31:06.746Z,946.62
2018-10-03T02:32:06.649Z,946.62
2018-10-03T02:33:06.551Z,946.57
2018-10-03T02:34:06.472Z,946.56
2018-10-03T02:35:06.456Z,946.51
2018-10-03T02:36:06.258Z,946.56
2018-10-03T02:37:06.163Z,946.56
2018-10-03T02:38:06.069Z,946.56
2018-10-03T02:39:05.984Z,946.50
2018-10-03T02:40:05.876Z,946.49
2018-10-03T02:41:05.782Z,946.48
2018-10-03T02:42:05.788Z,946.49
2018-10-03T02:43:05.584Z,946.46
2018-10-03T02:44:05.501Z,946.45
2018-10-03T02:45:05.392Z,946.42
2018-10-03T02:46:05.294Z,946.46
2018-10-03T02:47:05.207Z,946.46
2018-10-03T02:48:05.101Z,946.50
2018-10-03T02:49:05.123Z,946.54
2018-10-03T02:50:04.910Z,946.50
2018-10-03T02:51:04.810Z,946.52
2018-10-03T02:52:04.716Z,946.51
2018-10-03T02:53:04.615Z,946.49
2018-10-03T02:54:04.539Z,946.46
2018-10-03T02:55:04.424Z,946.51
2018-10-03T02:56:04.426Z,946.54
2018-10-03T02:57:04.229Z,946.53
2018-10-03T02:58:04.187Z,946.57
2018-10-03T02:59:04.058Z,946.56
2018-10-03T03:00:03.938Z,946.56
2018-10-03T03:01:03.843Z,946.55
2018-10-03T03:02:03.749Z,946.55
2018-10-03T03:03:03.654Z,946.61
2018-10-03T03:04:03.567Z,946.60
2018-10-03T03:05:03.455Z,946.63
2018-10-03T03:06:03.363Z,946.58
2018-10-03T03:07:03.263Z,946.59
2018-10-03T03:08:03.166Z,946.63
2018-10-03T03:09:03.180Z,946.63
2018-10-03T03:10:02.974Z,946.65
2018-10-03T03:11:02.878Z,946.63
2018-10-03T03:12:02.782Z,946.60
2018-10-03T03:13:02.687Z,946.64
2018-10-03T03:14:02.600Z,946.63
2018-10-03T03:15:02.492Z,946.67
2018-10-03T03:16:02.397Z,946.57
2018-10-03T03:17:02.298Z,946.62
2018-10-03T03:18:02.200Z,946.61
2018-10-03T03:19:02.119Z,946.64
2018-10-03T03:20:02.011Z,946.59
2018-10-03T03:21:01.914Z,946.66
2018-10-03T03:22:01.817Z,946.55
2018-10-03T03:23:01.720Z,946.71
2018-10-03T03:24:01.642Z,946.71
2018-10-03T03:25:01.528Z,946.67
2018-10-03T03:26:01.426Z,946.63
2018-10-03T03:27:01.332Z,946.71
2018-10-03T03:28:01.236Z,946.67
2018-10-03T03:29:01.153Z,946.65
2018-10-03T03:30:01.043Z,946.66
2018-10-03T03:31:00.943Z,946.74
2018-10-03T03:32:00.849Z,946.67
2018-10-03T03:33:00.756Z,946.70
2018-10-03T03:34:00.669Z,946.68
2018-10-03T03:35:00.558Z,946.69
2018-10-03T03:36:00.460Z,946.71
2018-10-03T03:37:00.366Z,946.66
2018-10-03T03:38:00.267Z,946.64
2018-10-03T03:39:00.192Z,946.66
2018-10-03T03:40:00.078Z,946.62
2018-10-03T03:40:59.982Z,946.62
2018-10-03T03:41:59.884Z,946.62
2018-10-03T03:42:59.782Z,946.65
2018-10-03T03:43:59.706Z,946.63
2018-10-03T03:44:59.590Z,946.66
2018-10-03T03:45:59.496Z,946.61
2018-10-03T03:46:59.402Z,946.60
2018-10-03T03:47:59.301Z,946.58
2018-10-03T03:48:59.224Z,946.60
2018-10-03T03:49:59.110Z,946.65
2018-10-03T03:50:59.016Z,946.64
2018-10-03T03:51:58.919Z,946.70
2018-10-03T03:52:58.824Z,946.65
2018-10-03T03:53:58.731Z,946.68
2018-10-03T03:54:58.644Z,946.64
2018-10-03T03:55:58.528Z,946.70
2018-10-03T03:56:58.433Z,946.73
2018-10-03T03:57:58.338Z,946.80
2018-10-03T03:58:58.244Z,946.79
2018-10-03T03:59:58.163Z,946.78
2018-10-03T04:00:58.051Z,946.74
2018-10-03T04:01:57.953Z,946.73
2018-10-03T04:02:57.853Z,946.77
2018-10-03T04:03:57.760Z,946.74
2018-10-03T04:04:57.679Z,946.75
2018-10-03T04:05:57.567Z,946.70
2018-10-03T04:06:57.467Z,946.72
2018-10-03T04:07:57.374Z,946.71
2018-10-03T04:08:57.285Z,946.72
2018-10-03T04:09:57.198Z,946.68
2018-10-03T04:10:57.085Z,946.64
2018-10-03T04:11:56.986Z,946.68
2018-10-03T04:12:56.894Z,946.64
2018-10-03T04:13:56.801Z,946.59
2018-10-03T04:14:56.714Z,946.63
2018-10-03T04:15:56.610Z,946.72
2018-10-03T04:16:56.507Z,946.69
2018-10-03T04:17:56.414Z,946.70
2018-10-03T04:18:56.314Z,946.72
2018-10-03T04:19:56.233Z,946.72
2018-10-03T04:20:56.124Z,946.81
2018-10-03T04:21:56.022Z,946.72
2018-10-03T04:22:55.926Z,946.78
2018-10-03T04:23:55.830Z,946.74
2018-10-03T04:24:55.757Z,946.74
2018-10-03T04:25:55.735Z,946.74
2018-10-03T04:26:55.542Z,946.76
2018-10-03T04:27:55.447Z,946.78
2018-10-03T04:28:55.350Z,946.80
2018-10-03T04:29:55.263Z,946.74
2018-10-03T04:30:55.155Z,946.72
2018-10-03T04:31:55.055Z,946.76
2018-10-03T04:32:54.961Z,946.82
2018-10-03T04:33:54.867Z,946.81
2018-10-03T04:34:54.784Z,946.81
2018-10-03T04:35:54.675Z,946.87
2018-10-03T04:36:54.572Z,946.82
2018-10-03T04:37:54.482Z,946.79
2018-10-03T04:38:54.379Z,946.85
2018-10-03T04:39:54.402Z,946.90
2018-10-03T04:40:54.188Z,946.98
2018-10-03T04:41:54.097Z,946.98
2018-10-03T04:42:53.993Z,946.98
2018-10-03T04:43:53.902Z,946.89
2018-10-03T04:44:53.817Z,946.95
2018-10-03T04:45:53.706Z,946.84
2018-10-03T04:46:53.712Z,946.86
2018-10-03T04:47:53.513Z,946.93
2018-10-03T04:48:53.452Z,946.87
2018-10-03T04:49:53.331Z,946.93
2018-10-03T04:50:53.221Z,946.86
2018-10-03T04:51:53.122Z,946.88
2018-10-03T04:52:53.026Z,946.91
2018-10-03T04:53:53.050Z,946.86
2018-10-03T04:54:52.856Z,946.89
2018-10-03T04:55:52.741Z,946.89
2018-10-03T04:56:52.646Z,946.89
2018-10-03T04:57:52.547Z,946.82
2018-10-03T04:58:52.449Z,946.85
2018-10-03T04:59:52.369Z,946.89
2018-10-03T05:00:52.362Z,946.85
2018-10-03T05:01:52.160Z,946.93
2018-10-03T05:02:52.061Z,946.83
2018-10-03T05:03:51.965Z,946.86
2018-10-03T05:04:51.886Z,946.86
2018-10-03T05:05:51.771Z,946.92
2018-10-03T05:06:51.675Z,946.93
2018-10-03T05:07:51.580Z,946.90
2018-10-03T05:08:51.484Z,946.85
2018-10-03T05:09:51.398Z,946.90
2018-10-03T05:10:51.288Z,946.91
2018-10-03T05:11:51.192Z,946.89
2018-10-03T05:12:51.093Z,946.89
2018-10-03T05:13:51.014Z,946.93
2018-10-03T05:14:50.922Z,946.97
2018-10-03T05:15:50.805Z,946.95
2018-10-03T05:16:50.712Z,947.00
2018-10-03T05:17:50.612Z,947.02
2018-10-03T05:18:50.514Z,947.05
2018-10-03T05:19:50.436Z,947.05
2018-10-03T05:20:50.322Z,946.99
2018-10-03T05:21:50.228Z,947.01
2018-10-03T05:22:50.134Z,947.10
2018-10-03T05:23:50.031Z,947.14
2018-10-03T05:24:49.952Z,947.11
2018-10-03T05:25:49.840Z,947.17
2018-10-03T05:26:49.749Z,947.15
2018-10-03T05:27:49.707Z,947.19
2018-10-03T05:28:49.551Z,947.19
2018-10-03T05:29:49.469Z,947.16
2018-10-03T05:30:49.359Z,947.30
2018-10-03T05:31:49.262Z,947.50
2018-10-03T05:32:49.163Z,947.52
2018-10-03T05:33:49.067Z,947.50
2018-10-03T05:34:48.986Z,947.57
2018-10-03T05:35:48.874Z,947.51
2018-10-03T05:36:49.078Z,947.55
2018-10-03T05:37:48.684Z,947.62
2018-10-03T05:38:48.588Z,947.59
2018-10-03T05:39:48.606Z,947.66
2018-10-03T05:40:48.391Z,947.58
2018-10-03T05:41:48.294Z,947.70
2018-10-03T05:42:48.201Z,947.72
2018-10-03T05:43:48.212Z,947.68
2018-10-03T05:44:48.011Z,947.71
2018-10-03T05:45:47.926Z,947.71
2018-10-03T05:46:47.812Z,947.76
2018-10-03T05:47:47.716Z,947.70
2018-10-03T05:48:47.677Z,947.87
2018-10-03T05:49:47.524Z,947.76
2018-10-03T05:50:47.544Z,947.85
2018-10-03T05:51:47.328Z,947.82
2018-10-03T05:52:47.228Z,947.89
2018-10-03T05:53:47.130Z,947.84
2018-10-03T05:54:47.042Z,947.85
2018-10-03T05:55:46.955Z,947.89
2018-10-03T05:56:46.840Z,947.89
2018-10-03T05:57:46.850Z,947.85
2018-10-03T05:58:46.647Z,947.86
2018-10-03T05:59:46.553Z,947.85
2018-10-03T06:00:46.470Z,947.87
2018-10-03T06:01:46.358Z,947.96
2018-10-03T06:02:46.309Z,948.01
2018-10-03T06:03:46.283Z,948.00
2018-10-03T06:04:46.065Z,948.00
2018-10-03T06:05:45.985Z,948.07
2018-10-03T06:06:45.867Z,948.09
2018-10-03T06:07:45.771Z,948.15
2018-10-03T06:08:45.674Z,948.21
2018-10-03T06:09:45.577Z,948.17
2018-10-03T06:10:45.497Z,948.17
2018-10-03T06:11:45.389Z,948.25
2018-10-03T06:12:45.284Z,948.27
2018-10-03T06:13:45.189Z,948.33
2018-10-03T06:14:45.094Z,948.30
2018-10-03T06:15:45.011Z,948.32
2018-10-03T06:16:44.899Z,948.25
2018-10-03T06:17:44.799Z,948.31
2018-10-03T06:18:44.811Z,948.36
2018-10-03T06:19:44.613Z,948.29
2018-10-03T06:20:44.526Z,948.36
2018-10-03T06:21:44.420Z,948.36
2018-10-03T06:22:44.318Z,948.36
2018-10-03T06:23:44.227Z,948.43
2018-10-03T06:24:44.129Z,948.44
2018-10-03T06:25:44.054Z,948.45
2018-10-03T06:26:43.930Z,948.45
2018-10-03T06:27:43.853Z,948.42
2018-10-03T06:28:43.739Z,948.44
2018-10-03T06:29:43.654Z,948.47
2018-10-03T06:30:43.565Z,948.47
2018-10-03T06:31:43.453Z,948.51
2018-10-03T06:32:43.352Z,948.51
2018-10-03T06:33:43.255Z,948.48
2018-10-03T06:34:43.161Z,948.52
2018-10-03T06:35:43.079Z,948.52
2018-10-03T06:36:42.968Z,948.56
2018-10-03T06:37:42.870Z,948.58
2018-10-03T06:38:42.772Z,948.55
2018-10-03T06:39:42.673Z,948.61
2018-10-03T06:40:42.594Z,948.63
2018-10-03T06:41:42.484Z,948.64
2018-10-03T06:42:42.386Z,948.64
2018-10-03T06:43:42.288Z,948.66
2018-10-03T06:44:42.191Z,948.64
2018-10-03T06:45:42.243Z,948.66
2018-10-03T06:46:42.001Z,948.67
2018-10-03T06:47:41.904Z,948.65
2018-10-03T06:48:41.808Z,948.70
2018-10-03T06:49:41.713Z,948.67
2018-10-03T06:50:41.629Z,948.73
2018-10-03T06:51:41.516Z,948.72
2018-10-03T06:52:41.419Z,948.72
2018-10-03T06:53:41.327Z,948.76
2018-10-03T06:54:41.232Z,948.81
2018-10-03T06:55:41.148Z,948.79
2018-10-03T06:56:41.035Z,948.78
2018-10-03T06:57:40.939Z,948.82
2018-10-03T06:58:40.844Z,948.78
2018-10-03T06:59:40.750Z,948.75
2018-10-03T07:00:40.668Z,948.82
2018-10-03T07:01:40.553Z,948.84
2018-10-03T07:02:40.458Z,948.90
2018-10-03T07:03:40.363Z,948.94
2018-10-03T07:04:40.267Z,949.06
2018-10-03T07:05:40.195Z,949.16
2018-10-03T07:06:40.075Z,949.29
2018-10-03T07:07:39.979Z,949.51
2018-10-03T07:08:39.895Z,948.94
2018-10-03T07:09:39.785Z,948.96
2018-10-03T07:10:39.707Z,949.04
2018-10-03T07:11:39.594Z,949.02
2018-10-03T07:12:39.504Z,949.00
2018-10-03T07:13:39.405Z,949.08
2018-10-03T07:14:39.308Z,949.17
2018-10-03T07:15:39.231Z,949.14
2018-10-03T07:16:39.115Z,949.31
2018-10-03T07:17:39.022Z,949.43
2018-10-03T07:18:38.927Z,949.46
2018-10-03T07:19:38.831Z,949.15
2018-10-03T07:20:38.855Z,949.12
2018-10-03T07:21:38.643Z,949.15
2018-10-03T07:22:38.547Z,949.15
2018-10-03T07:23:38.454Z,949.15
2018-10-03T07:24:38.354Z,949.12
2018-10-03T07:25:38.262Z,949.12
2018-10-03T07:26:38.180Z,949.17
2018-10-03T07:27:38.171Z,949.21
2018-10-03T07:28:37.974Z,949.21
2018-10-03T07:29:37.881Z,949.16
2018-10-03T07:30:37.786Z,949.16
2018-10-03T07:31:37.705Z,949.18
2018-10-03T07:32:37.669Z,949.14
2018-10-03T07:33:37.501Z,949.14
2018-10-03T07:34:37.511Z,949.24
2018-10-03T07:35:37.313Z,949.25
2018-10-03T07:36:37.233Z,949.19
2018-10-03T07:37:37.118Z,949.23
2018-10-03T07:38:37.027Z,949.29
2018-10-03T07:39:36.930Z,949.26
2018-10-03T07:40:36.842Z,949.29
2018-10-03T07:41:36.858Z,949.29
2018-10-03T07:42:36.642Z,949.27
2018-10-03T07:43:36.550Z,949.27
2018-10-03T07:44:36.456Z,949.37
2018-10-03T07:45:36.362Z,949.39
2018-10-03T07:46:36.278Z,949.36
2018-10-03T07:47:36.170Z,949.37
2018-10-03T07:48:36.191Z,949.35
2018-10-03T07:49:35.977Z,949.33
2018-10-03T07:50:35.884Z,949.38
2018-10-03T07:51:35.804Z,949.48
2018-10-03T07:52:35.696Z,949.64
2018-10-03T07:53:35.646Z,949.74
2018-10-03T07:54:35.504Z,949.74
2018-10-03T07:55:35.515Z,949.87
2018-10-03T07:56:35.330Z,949.82
2018-10-03T07:57:35.231Z,949.67
2018-10-03T07:58:35.125Z,949.71
2018-10-03T07:59:35.031Z,950.03
2018-10-03T08:00:34.953Z,949.63
2018-10-03T08:01:34.864Z,949.81
2018-10-03T08:02:34.849Z,949.65
2018-10-03T08:03:34.650Z,949.69
2018-10-03T08:04:34.558Z,949.97
2018-10-03T08:05:34.462Z,949.62
2018-10-03T08:06:34.388Z,949.78
2018-10-03T08:07:34.278Z,950.05
2018-10-03T08:08:34.185Z,949.97
2018-10-03T08:09:34.259Z,949.77
2018-10-03T08:10:33.999Z,949.87
2018-10-03T08:11:33.920Z,950.06
2018-10-03T08:12:33.809Z,949.95
2018-10-03T08:13:33.720Z,949.90
2018-10-03T08:14:33.621Z,950.11
2018-10-03T08:15:33.529Z,949.92
2018-10-03T08:16:33.558Z,949.79
2018-10-03T08:17:33.342Z,950.04
2018-10-03T08:18:33.251Z,949.94
2018-10-03T08:19:33.155Z,950.06
2018-10-03T08:20:33.072Z,950.12
2018-10-03T08:21:32.986Z,950.01
2018-10-03T08:22:32.884Z,950.04
2018-10-03T08:23:32.891Z,950.23
2018-10-03T08:24:32.716Z,950.31
2018-10-03T08:25:32.603Z,950.24
2018-10-03T08:26:32.528Z,950.18
2018-10-03T08:27:32.419Z,950.19
2018-10-03T08:28:32.325Z,949.93
2018-10-03T08:29:32.234Z,949.85
2018-10-03T08:30:32.243Z,949.72
2018-10-03T08:31:32.070Z,949.75
2018-10-03T08:32:32.141Z,949.75
2018-10-03T08:33:31.868Z,949.74
2018-10-03T08:34:31.779Z,949.77
2018-10-03T08:35:31.690Z,949.77
2018-10-03T08:36:31.610Z,949.79
2018-10-03T08:37:31.499Z,949.75
2018-10-03T08:38:31.427Z,949.84
2018-10-03T08:39:31.319Z,949.75
2018-10-03T08:40:31.224Z,949.73
2018-10-03T08:41:31.156Z,949.83
2018-10-03T08:42:31.045Z,949.88
2018-10-03T08:43:30.946Z,949.94
2018-10-03T08:44:30.857Z,950.01
2018-10-03T08:45:30.839Z,950.34
2018-10-03T08:46:30.687Z,950.12
2018-10-03T08:47:30.580Z,950.03
2018-10-03T08:48:30.483Z,950.05
2018-10-03T08:49:30.396Z,950.17
2018-10-03T08:50:30.304Z,950.42
2018-10-03T08:51:30.224Z,950.00
2018-10-03T08:52:30.115Z,950.00
2018-10-03T08:53:30.021Z,949.92
2018-10-03T08:54:29.929Z,949.96
2018-10-03T08:55:29.837Z,949.95
2018-10-03T08:56:29.763Z,949.87
2018-10-03T08:57:29.652Z,949.92
2018-10-03T08:58:29.754Z,949.92
2018-10-03T08:59:29.464Z,949.81
2018-10-03T09:00:29.373Z,949.91
2018-10-03T09:01:29.295Z,949.92
2018-10-03T09:02:29.185Z,949.85
2018-10-03T09:03:29.095Z,949.96
2018-10-03T09:04:29.001Z,950.07
2018-10-03T09:05:28.910Z,950.04
2018-10-03T09:06:28.834Z,950.09
2018-10-03T09:07:28.728Z,950.07
2018-10-03T09:08:28.628Z,950.14
2018-10-03T09:09:28.576Z,950.04
2018-10-03T09:10:28.455Z,949.97
2018-10-03T09:11:28.352Z,950.00
2018-10-03T09:12:28.272Z,949.93
2018-10-03T09:13:28.463Z,949.96
2018-10-03T09:14:28.071Z,949.97
2018-10-03T09:15:27.972Z,949.93
2018-10-03T09:16:27.897Z,949.94
2018-10-03T09:17:27.785Z,949.90
2018-10-03T09:18:27.688Z,949.99
2018-10-03T09:19:27.597Z,950.02
2018-10-03T09:20:27.504Z,950.05
2018-10-03T09:21:27.467Z,950.29
2018-10-03T09:22:27.329Z,950.24
2018-10-03T09:23:27.225Z,950.16
2018-10-03T09:24:27.128Z,950.15
2018-10-03T09:25:27.049Z,950.18
2018-10-03T09:26:26.945Z,950.11
2018-10-03T09:27:26.862Z,950.11
2018-10-03T09:28:26.816Z,950.19
2018-10-03T09:29:26.662Z,950.23
2018-10-03T09:30:26.570Z,950.25
2018-10-03T09:31:26.475Z,950.25
2018-10-03T09:32:26.402Z,950.19
2018-10-03T09:33:26.381Z,950.19
2018-10-03T09:34:26.193Z,950.11
2018-10-03T09:35:26.103Z,950.15
2018-10-03T09:36:26.017Z,950.13
2018-10-03T09:37:25.928Z,950.10
2018-10-03T09:38:25.820Z,950.10
2018-10-03T09:39:25.778Z,950.11
2018-10-03T09:40:25.737Z,950.11
2018-10-03T09:41:25.539Z,950.08
2018-10-03T09:42:25.461Z,950.08
2018-10-03T09:43:25.353Z,950.06
2018-10-03T09:44:25.317Z,950.12
2018-10-03T09:45:25.168Z,950.14
2018-10-03T09:46:25.069Z,950.12
2018-10-03T09:47:25.101Z,950.14
2018-10-03T09:48:24.886Z,950.19
2018-10-03T09:49:24.796Z,950.14
2018-10-03T09:50:24.700Z,950.21
2018-10-03T09:51:24.607Z,950.22
2018-10-03T09:52:24.534Z,950.13
2018-10-03T09:53:24.421Z,950.17
2018-10-03T09:54:24.444Z,950.08
2018-10-03T09:55:24.231Z,950.07
2018-10-03T09:56:24.138Z,950.13
2018-10-03T09:57:24.071Z,950.05
2018-10-03T09:58:23.953Z,950.06
2018-10-03T09:59:23.861Z,950.13
2018-10-03T10:00:23.825Z,950.19
2018-10-03T10:01:23.773Z,950.44
2018-10-03T10:02:23.598Z,950.27
2018-10-03T10:03:23.487Z,950.22
2018-10-03T10:04:23.390Z,950.22
2018-10-03T10:05:23.302Z,950.17
2018-10-03T10:06:23.205Z,950.20
2018-10-03T10:07:23.126Z,950.27
2018-10-03T10:08:23.025Z,950.15
2018-10-03T10:09:22.926Z,950.23
2018-10-03T10:10:22.894Z,950.21
2018-10-03T10:11:22.856Z,950.22
2018-10-03T10:12:22.659Z,950.26
2018-10-03T10:13:22.552Z,950.14
2018-10-03T10:14:22.458Z,950.12
2018-10-03T10:15:22.369Z,950.20
2018-10-03T10:16:22.268Z,950.19
2018-10-03T10:17:22.192Z,950.23
2018-10-03T10:18:22.137Z,950.11
2018-10-03T10:19:21.988Z,950.20
2018-10-03T10:20:21.931Z,950.30
2018-10-03T10:21:21.801Z,950.26
2018-10-03T10:22:21.727Z,950.48
2018-10-03T10:23:21.611Z,950.57
2018-10-03T10:24:21.525Z,950.68
2018-10-03T10:25:21.426Z,951.22
2018-10-03T10:26:21.329Z,950.69
2018-10-03T10:27:21.252Z,950.59
2018-10-03T10:28:21.143Z,950.57
2018-10-03T10:29:21.049Z,950.52
2018-10-03T10:30:20.959Z,950.55
2018-10-03T10:31:20.860Z,950.57
2018-10-03T10:32:20.893Z,950.55
2018-10-03T10:33:20.687Z,950.48
2018-10-03T10:34:20.582Z,950.47
2018-10-03T10:35:20.491Z,950.45
2018-10-03T10:36:20.395Z,950.51
2018-10-03T10:37:20.322Z,950.47
2018-10-03T10:38:20.207Z,950.39
2018-10-03T10:39:20.114Z,950.48
2018-10-03T10:40:20.116Z,950.48
2018-10-03T10:41:20.051Z,950.48
2018-10-03T10:42:19.849Z,950.45
2018-10-03T10:43:19.775Z,950.49
2018-10-03T10:44:19.647Z,950.46
2018-10-03T10:45:19.557Z,950.46
2018-10-03T10:46:19.457Z,950.41
2018-10-03T10:47:19.379Z,950.44
2018-10-03T10:48:19.267Z,950.55
2018-10-03T10:49:19.176Z,950.58
2018-10-03T10:50:19.170Z,951.55
2018-10-03T10:51:18.986Z,951.45
2018-10-03T10:52:18.907Z,950.71
2018-10-03T10:53:18.798Z,950.63
2018-10-03T10:54:18.703Z,950.65
2018-10-03T10:55:18.609Z,950.55
2018-10-03T10:56:18.521Z,950.58
2018-10-03T10:57:18.427Z,950.55
2018-10-03T10:58:18.345Z,950.51
2018-10-03T10:59:18.238Z,950.50
2018-10-03T11:00:18.165Z,950.52
2018-10-03T11:01:18.053Z,950.57
2018-10-03T11:02:17.977Z,950.60
2018-10-03T11:03:17.863Z,950.52
2018-10-03T11:04:17.776Z,950.64
2018-10-03T11:05:17.679Z,950.73
2018-10-03T11:06:17.641Z,950.73
2018-10-03T11:07:17.491Z,950.64
2018-10-03T11:08:17.414Z,950.66
2018-10-03T11:09:17.302Z,950.94
2018-10-03T11:10:17.211Z,951.18
2018-10-03T11:11:17.118Z,950.81
2018-10-03T11:12:17.022Z,950.78
2018-10-03T11:13:16.944Z,950.91
2018-10-03T11:14:16.832Z,950.91
2018-10-03T11:15:16.739Z,950.78
2018-10-03T11:16:16.647Z,950.70
2018-10-03T11:17:16.555Z,950.80
2018-10-03T11:18:16.475Z,950.74
2018-10-03T11:19:16.370Z,950.68
2018-10-03T11:20:16.278Z,951.22
2018-10-03T11:21:16.185Z,951.26
2018-10-03T11:22:16.090Z,950.91
2018-10-03T11:23:16.022Z,950.88
2018-10-03T11:24:15.996Z,950.84
2018-10-03T11:25:15.816Z,950.85
2018-10-03T11:26:15.718Z,950.88
2018-10-03T11:27:15.631Z,951.27
2018-10-03T11:28:15.548Z,950.99
2018-10-03T11:29:15.442Z,950.88
2018-10-03T11:30:15.346Z,951.10
2018-10-03T11:31:15.257Z,951.26
2018-10-03T11:32:15.301Z,950.76
2018-10-03T11:33:15.087Z,950.80
2018-10-03T11:34:14.978Z,950.82
2018-10-03T11:35:14.884Z,950.89
2018-10-03T11:36:14.795Z,951.16
2018-10-03T11:37:14.699Z,951.19
2018-10-03T11:38:14.638Z,950.98
2018-10-03T11:39:14.619Z,950.59
2018-10-03T11:40:14.423Z,950.94
2018-10-03T11:41:14.334Z,951.01
2018-10-03T11:42:14.240Z,950.99
2018-10-03T11:43:14.169Z,950.97
2018-10-03T11:44:14.060Z,951.06
2018-10-03T11:45:13.969Z,950.90
2018-10-03T11:46:13.875Z,951.06
2018-10-03T11:47:13.788Z,951.09
2018-10-03T11:48:13.711Z,950.99
2018-10-03T11:49:13.609Z,951.09
2018-10-03T11:50:13.517Z,951.08
2018-10-03T11:51:13.422Z,951.05
2018-10-03T11:52:13.333Z,951.20
2018-10-03T11:53:13.364Z,951.16
2018-10-03T11:54:13.155Z,951.14
2018-10-03T11:55:13.063Z,951.24
2018-10-03T11:56:12.978Z,951.02
2018-10-03T11:57:12.978Z,951.18
2018-10-03T11:58:12.810Z,951.24
2018-10-03T11:59:12.708Z,951.10
2018-10-03T12:00:12.721Z,951.24
2018-10-03T12:01:12.528Z,951.21
2018-10-03T12:02:12.440Z,951.10
2018-10-03T12:03:12.382Z,951.17
2018-10-03T12:04:12.261Z,951.12
2018-10-03T12:05:12.173Z,951.18
2018-10-03T12:06:12.084Z,951.23
2018-10-03T12:07:11.996Z,951.14
2018-10-03T12:08:11.921Z,951.23
2018-10-03T12:09:11.820Z,951.17
2018-10-03T12:10:11.727Z,951.08
2018-10-03T12:11:11.639Z,950.98
2018-10-03T12:12:11.550Z,951.19
2018-10-03T12:13:11.590Z,950.91
2018-10-03T12:14:11.373Z,950.95
2018-10-03T12:15:11.290Z,950.98
2018-10-03T12:16:11.198Z,951.02
2018-10-03T12:17:11.109Z,951.18
2018-10-03T12:18:11.037Z,951.04
2018-10-03T12:19:10.930Z,951.19
2018-10-03T12:20:10.950Z,951.17
2018-10-03T12:21:10.753Z,951.07
2018-10-03T12:22:10.664Z,951.12
2018-10-03T12:23:10.606Z,951.25
2018-10-03T12:24:10.489Z,951.13
2018-10-03T12:25:10.437Z,951.04
2018-10-03T12:26:10.310Z,951.14
2018-10-03T12:27:10.222Z,951.11